Terminal Aerodrome Forecast
Issued by NWS Denver/Boulder, CO

Home | Current Version | Previous Version | Text Only | Print | Product List | Glossary On
Versions: 1 2 3 4 5 6 7 8 9 10 11 12 13 14 15 16 17 18 19 20 21 22 23 24 25 26 27 28 29 30 31 32 33 34 35 36 37 38 39 40 41 42 43 44 45 46 47 48 49 50
000
FTUS45 KBOU 292339
TAFDEN
TAF
KDEN 292339Z 3000/0106 25012KT 4SM SHRA FEW006 SCT020 OVC040
     FM300100 34009KT P6SM -SHRA SCT020 OVC050
     FM300300 25011KT P6SM SCT040 BKN080
     FM300600 21010KT P6SM FEW120
     FM301700 25007KT P6SM FEW070 SCT120
     FM302100 33008KT P6SM SCT070 SCT120
     FM010200 20008KT P6SM FEW070 BKN120=

USA.gov is the U.S. government's official web portal to all federal, state and local government web resources and services.